Time;durP1;ratioP1;P1;durP2;ratioP2;P2;SDS_P1;SDS_P2;PMS_P1;PMS_P2;Temp;Humidity;BMP_temperature;BMP_pressure;BME280_temperature;BME280_humidity;BME280_pressure;Samples;Min_cycle;Max_cycle;Signal;HPM_P1;HPM_P2
2022/05/03 00:01:23;;;;;;;19.10;10.07;;;13.80;77.50;;;;;;4961808;29;20205;-68
2022/05/03 00:03:58;;;;;;;14.07;10.60;;;13.70;77.70;;;;;;4961091;29;20194;-69
2022/05/03 00:06:31;;;;;;;15.47;11.13;;;13.70;77.90;;;;;;4961119;29;20244;-69
2022/05/03 00:09:05;;;;;;;16.27;10.60;;;13.70;78.00;;;;;;4962069;28;20201;-69
2022/05/03 00:11:34;;;;;;;19.83;10.97;;;13.70;78.40;;;;;;4977119;28;20690;-70
2022/05/03 00:14:17;;;;;;;19.77;10.67;;;13.60;78.50;;;;;;4977144;28;20235;-69
2022/05/03 00:16:46;;;;;;;15.47;11.13;;;13.70;78.60;;;;;;4977307;28;20228;-69
2022/05/03 00:19:13;;;;;;;15.33;11.27;;;13.70;78.50;;;;;;4977227;28;20204;-69
2022/05/03 00:21:41;;;;;;;15.23;11.70;;;13.70;78.40;;;;;;4977104;28;20298;-69
2022/05/03 00:24:09;;;;;;;19.77;11.47;;;13.70;78.30;;;;;;4978285;28;20713;-67
2022/05/03 00:26:36;;;;;;;20.83;12.67;;;13.80;78.40;;;;;;4977539;28;20753;-69
2022/05/03 00:29:04;;;;;;;23.60;12.07;;;13.70;78.30;;;;;;4976307;28;20208;-69
2022/05/03 00:31:31;;;;;;;27.10;12.80;;;13.80;78.50;;;;;;4976814;28;20208;-68
2022/05/03 00:33:58;;;;;;;18.70;12.03;;;13.80;78.40;;;;;;4976928;28;20255;-69
2022/05/03 00:36:25;;;;;;;25.27;13.87;;;13.80;78.60;;;;;;4976688;28;20292;-69
2022/05/03 00:38:55;;;;;;;21.00;13.23;;;13.80;78.70;;;;;;4973075;28;20245;-68
2022/05/03 00:41:30;;;;;;;22.27;12.67;;;13.80;78.70;;;;;;4964802;28;20721;-68
2022/05/03 00:44:04;;;;;;;21.30;13.23;;;13.70;78.60;;;;;;4976515;28;20204;-69
2022/05/03 00:46:38;;;;;;;25.17;13.63;;;13.70;78.60;;;;;;4977433;28;20248;-68
2022/05/03 00:49:19;;;;;;;22.57;14.03;;;13.60;78.90;;;;;;4976859;28;20231;-68
2022/05/03 00:51:53;;;;;;;24.60;14.10;;;13.60;79.50;;;;;;4976336;28;20228;-69
2022/05/03 00:54:52;;;;;;;20.43;14.57;;;13.60;80.00;;;;;;4976996;28;20552;-69
2022/05/03 00:57:33;;;;;;;20.27;14.50;;;13.60;80.20;;;;;;4976606;28;20669;-68
2022/05/03 01:00:09;;;;;;;25.60;15.27;;;13.50;80.20;;;;;;4975870;28;20710;-68
2022/05/03 01:02:54;;;;;;;24.93;15.97;;;13.40;80.20;;;;;;4976263;28;20284;-68
2022/05/03 01:05:26;;;;;;;22.37;15.10;;;13.30;80.50;;;;;;4976552;28;20284;-68
2022/05/03 01:08:04;;;;;;;22.40;14.77;;;13.30;80.70;;;;;;4975877;28;20197;-70
2022/05/03 01:10:36;;;;;;;19.37;15.30;;;13.20;81.30;;;;;;4959382;28;20197;-69
2022/05/03 01:13:05;;;;;;;23.73;15.57;;;13.20;81.10;;;;;;4956392;29;20260;-69
2022/05/03 01:15:33;;;;;;;22.40;15.80;;;13.10;81.40;;;;;;4956408;29;20205;-68
2022/05/03 01:18:14;;;;;;;21.43;15.47;;;13.10;81.50;;;;;;4956368;29;20202;-68
2022/05/03 01:20:49;;;;;;;19.97;13.83;;;13.00;81.70;;;;;;4956687;29;20288;-70
2022/05/03 01:23:44;;;;;;;22.43;14.63;;;13.00;81.90;;;;;;4956826;29;20613;-69
2022/05/03 01:26:40;;;;;;;21.20;13.87;;;13.00;82.00;;;;;;4956710;29;20610;-68
2022/05/03 01:29:25;;;;;;;28.47;14.37;;;12.90;82.10;;;;;;4956483;29;20668;-68
2022/05/03 01:31:57;;;;;;;19.83;13.90;;;12.90;82.20;;;;;;4956504;29;20189;-68
2022/05/03 01:34:26;;;;;;;20.07;13.70;;;12.90;82.20;;;;;;4956528;29;20190;-69
2022/05/03 01:37:16;;;;;;;19.00;13.90;;;12.90;82.40;;;;;;4955465;29;20497;-69
2022/05/03 01:39:58;;;;;;;17.57;13.23;;;12.90;82.50;;;;;;4967987;28;20205;-68
2022/05/03 01:42:33;;;;;;;18.13;14.03;;;12.90;82.40;;;;;;4975491;28;20243;-69
2022/05/03 01:45:05;;;;;;;21.10;14.13;;;12.90;82.40;;;;;;4975419;28;20288;-68
2022/05/03 01:47:43;;;;;;;20.43;14.17;;;12.80;82.30;;;;;;4974081;28;20203;-68
2022/05/03 01:50:18;;;;;;;18.27;13.40;;;12.90;82.60;;;;;;4975221;28;20207;-69
2022/05/03 01:53:13;;;;;;;19.50;14.07;;;12.80;82.70;;;;;;4975876;28;20576;-69
2022/05/03 01:56:12;;;;;;;18.07;12.70;;;12.80;82.30;;;;;;4975521;28;20260;-68
2022/05/03 01:58:57;;;;;;;18.93;13.50;;;12.80;82.20;;;;;;4975673;28;20295;-69
2022/05/03 02:01:39;;;;;;;22.93;13.73;;;12.80;82.10;;;;;;4975653;28;20197;-69
2022/05/03 02:04:23;;;;;;;19.53;12.93;;;12.80;82.10;;;;;;4975486;28;20189;-69
2022/05/03 02:07:02;;;;;;;18.43;13.30;;;12.70;81.80;;;;;;4975664;28;20244;-68
2022/05/03 02:09:42;;;;;;;19.00;13.73;;;12.70;81.90;;;;;;4966738;28;20280;-69
2022/05/03 02:12:15;;;;;;;17.87;12.50;;;12.60;82.00;;;;;;4959433;29;20284;-69
2022/05/03 02:14:52;;;;;;;19.43;12.70;;;12.60;82.00;;;;;;4959229;29;20200;-68
2022/05/03 02:17:38;;;;;;;19.07;12.73;;;12.60;82.10;;;;;;4959658;29;20284;-69
2022/05/03 02:20:29;;;;;;;21.60;13.40;;;12.50;82.20;;;;;;4959688;29;20285;-69
2022/05/03 02:23:13;;;;;;;17.93;12.37;;;12.40;82.30;;;;;;4959474;29;20633;-68
2022/05/03 02:25:53;;;;;;;19.03;14.10;;;12.40;82.50;;;;;;4959986;29;20297;-69
2022/05/03 02:28:27;;;;;;;22.23;13.77;;;12.40;82.80;;;;;;4959722;29;20193;-68
2022/05/03 02:30:56;;;;;;;17.17;13.10;;;12.30;83.00;;;;;;4959294;29;20193;-69
2022/05/03 02:33:29;;;;;;;19.83;12.53;;;12.20;83.10;;;;;;4959386;29;20281;-68
2022/05/03 02:35:58;;;;;;;17.80;12.50;;;12.10;83.40;;;;;;4959631;29;20221;-69
2022/05/03 02:38:32;;;;;;;19.40;13.10;;;12.10;83.90;;;;;;4959585;28;20208;-68
2022/05/03 02:41:02;;;;;;;18.20;13.07;;;12.00;84.30;;;;;;4959356;29;20194;-69
2022/05/03 02:43:32;;;;;;;19.10;11.83;;;11.90;84.60;;;;;;4959467;29;20615;-68
2022/05/03 02:46:14;;;;;;;20.93;12.63;;;11.80;84.80;;;;;;4959028;29;20205;-68
2022/05/03 02:48:51;;;;;;;18.50;12.63;;;11.70;85.20;;;;;;4959517;29;20603;-68
2022/05/03 02:51:22;;;;;;;16.53;11.90;;;11.70;85.50;;;;;;4959066;29;20213;-68
2022/05/03 02:53:56;;;;;;;19.10;11.77;;;11.60;85.70;;;;;;4959507;29;20280;-68
2022/05/03 02:56:27;;;;;;;15.30;10.87;;;11.60;85.80;;;;;;4958872;29;20281;-69
2022/05/03 02:59:06;;;;;;;15.10;10.73;;;11.60;85.90;;;;;;4969638;28;20199;-68
2022/05/03 03:01:48;;;;;;;15.37;10.13;;;11.60;86.00;;;;;;4977991;28;20607;-69
2022/05/03 03:04:29;;;;;;;15.90;9.70;;;11.50;85.90;;;;;;4978006;28;20189;-69
2022/05/03 03:06:56;;;;;;;14.93;9.80;;;11.50;85.80;;;;;;4978082;28;20215;-69
2022/05/03 03:09:35;;;;;;;13.50;8.53;;;11.50;85.70;;;;;;4978068;28;20236;-68
2022/05/03 03:12:05;;;;;;;16.57;9.13;;;11.60;85.50;;;;;;4977838;28;20284;-69
2022/05/03 03:14:36;;;;;;;9.73;8.17;;;11.50;85.10;;;;;;4977243;28;20229;-70
2022/05/03 03:17:08;;;;;;;11.53;7.37;;;11.50;84.80;;;;;;4977791;28;20275;-68
2022/05/03 03:19:57;;;;;;;11.63;7.47;;;11.50;84.40;;;;;;4977790;28;20545;-68
2022/05/03 03:22:29;;;;;;;13.13;8.10;;;11.40;83.70;;;;;;4977201;28;20227;-69
2022/05/03 03:24:59;;;;;;;9.10;7.43;;;11.40;83.70;;;;;;4977561;28;20204;-68
2022/05/03 03:27:27;;;;;;;12.43;7.90;;;11.40;83.40;;;;;;4977655;28;20231;-68
2022/05/03 03:29:57;;;;;;;12.97;6.90;;;11.40;83.10;;;;;;4958265;28;20296;-69
2022/05/03 03:32:26;;;;;;;14.40;7.40;;;11.40;83.00;;;;;;4957795;29;20650;-69
2022/05/03 03:34:57;;;;;;;11.83;7.70;;;11.40;83.10;;;;;;4958186;29;20548;-68
2022/05/03 03:37:25;;;;;;;10.63;7.40;;;11.30;83.10;;;;;;4957841;29;20281;-69
2022/05/03 03:39:52;;;;;;;12.97;7.17;;;11.40;83.50;;;;;;4958376;29;20212;-68
2022/05/03 03:42:20;;;;;;;11.87;7.47;;;11.30;83.70;;;;;;4957532;29;20245;-69
2022/05/03 03:44:47;;;;;;;10.27;7.40;;;11.30;83.70;;;;;;4958179;29;20209;-69
2022/05/03 03:47:15;;;;;;;11.50;7.40;;;11.40;83.70;;;;;;4958639;29;20248;-69
2022/05/03 03:49:43;;;;;;;11.97;6.77;;;11.40;83.60;;;;;;4957873;29;20209;-70
2022/05/03 03:52:13;;;;;;;8.77;6.83;;;11.40;83.50;;;;;;4958907;29;20209;-69
2022/05/03 03:54:41;;;;;;;11.07;6.57;;;11.40;83.30;;;;;;4957918;29;20329;-69
2022/05/03 03:57:09;;;;;;;12.77;7.10;;;11.50;83.10;;;;;;4958345;29;20685;-67
2022/05/03 03:59:38;;;;;;;12.93;7.50;;;11.50;83.10;;;;;;4973784;28;20209;-68
2022/05/03 04:02:05;;;;;;;9.47;6.93;;;11.50;82.70;;;;;;4976855;28;20201;-69
2022/05/03 04:04:38;;;;;;;9.17;6.53;;;11.50;82.50;;;;;;4977168;28;20267;-68
2022/05/03 04:07:05;;;;;;;10.60;6.93;;;11.50;82.50;;;;;;4976675;28;20203;-69
2022/05/03 04:09:34;;;;;;;9.50;6.27;;;11.50;82.70;;;;;;4976978;28;20226;-69
2022/05/03 04:12:02;;;;;;;10.30;6.97;;;11.50;82.70;;;;;;4978054;28;20574;-69
2022/05/03 04:14:30;;;;;;;10.07;6.43;;;11.50;82.50;;;;;;4976949;28;20623;-69
2022/05/03 04:16:58;;;;;;;8.30;6.40;;;11.70;82.50;;;;;;4976990;28;20243;-69
2022/05/03 04:19:25;;;;;;;11.10;7.00;;;11.70;82.20;;;;;;4976756;28;20208;-68
2022/05/03 04:21:52;;;;;;;11.07;6.37;;;11.70;82.10;;;;;;4976601;28;20225;-68
2022/05/03 04:24:19;;;;;;;7.43;6.10;;;11.80;82.00;;;;;;4976949;28;20264;-68
2022/05/03 04:26:48;;;;;;;8.33;6.20;;;11.80;81.70;;;;;;4975960;28;20569;-70
2022/05/03 04:29:15;;;;;;;8.90;6.80;;;11.80;81.70;;;;;;4974731;28;20251;-68
2022/05/03 04:31:42;;;;;;;8.37;6.40;;;11.90;81.70;;;;;;4973966;28;20209;-69
2022/05/03 04:34:09;;;;;;;7.43;6.40;;;12.00;81.30;;;;;;4976253;28;20235;-69
2022/05/03 04:36:36;;;;;;;8.83;6.57;;;12.00;80.90;;;;;;4976650;28;20523;-68
2022/05/03 04:39:04;;;;;;;10.23;6.40;;;12.10;80.90;;;;;;4974506;28;20212;-68
2022/05/03 04:41:32;;;;;;;13.00;6.80;;;12.10;81.30;;;;;;4975716;28;20279;-69
2022/05/03 04:44:01;;;;;;;11.67;6.03;;;12.10;80.30;;;;;;4975715;28;20214;-68
2022/05/03 04:46:27;;;;;;;8.00;5.80;;;12.20;80.30;;;;;;4976249;28;20295;-69
2022/05/03 04:48:54;;;;;;;8.40;6.47;;;12.30;79.70;;;;;;4976104;28;20284;-68
2022/05/03 04:51:22;;;;;;;7.03;6.10;;;12.30;79.30;;;;;;4975595;28;20750;-69
2022/05/03 04:53:49;;;;;;;9.10;6.33;;;12.40;79.50;;;;;;4975888;28;20236;-68
2022/05/03 04:56:18;;;;;;;12.77;6.93;;;12.40;79.30;;;;;;4974009;28;20291;-69
2022/05/03 04:58:45;;;;;;;11.57;6.63;;;12.50;79.10;;;;;;4975750;28;20231;-68
2022/05/03 05:01:14;;;;;;;9.10;6.30;;;12.60;79.50;;;;;;4975202;28;20209;-68
2022/05/03 05:03:41;;;;;;;8.37;5.53;;;12.70;78.40;;;;;;4975390;28;20207;-68
2022/05/03 05:06:08;;;;;;;9.57;5.50;;;12.70;77.60;;;;;;4975751;28;20205;-68
2022/05/03 05:08:36;;;;;;;7.37;5.53;;;12.80;77.60;;;;;;4974757;28;20214;-69
2022/05/03 05:11:03;;;;;;;7.37;5.20;;;12.90;76.70;;;;;;4975542;28;20654;-68
2022/05/03 05:13:30;;;;;;;7.50;4.80;;;12.90;76.10;;;;;;4975831;28;20233;-69
2022/05/03 05:15:57;;;;;;;5.93;4.73;;;13.00;75.40;;;;;;4976005;28;20232;-68
2022/05/03 05:18:26;;;;;;;6.63;4.17;;;13.10;74.70;;;;;;4975937;28;20239;-69
2022/05/03 05:20:52;;;;;;;6.33;4.67;;;13.10;73.70;;;;;;4975357;28;20311;-69
2022/05/03 05:23:19;;;;;;;7.30;4.83;;;13.20;73.00;;;;;;4975523;28;20227;-68
2022/05/03 05:25:47;;;;;;;6.03;4.10;;;13.20;72.90;;;;;;4969648;28;20201;-68
2022/05/03 05:28:15;;;;;;;5.40;4.00;;;13.30;72.20;;;;;;4955889;29;20205;-69
2022/05/03 05:30:42;;;;;;;5.53;4.07;;;13.40;71.40;;;;;;4956519;29;20637;-69
2022/05/03 05:33:09;;;;;;;6.13;3.70;;;13.50;70.80;;;;;;4956981;29;20243;-69
2022/05/03 05:35:37;;;;;;;5.60;4.40;;;13.50;70.30;;;;;;4956719;29;20572;-69
2022/05/03 05:38:04;;;;;;;4.80;3.87;;;13.50;69.70;;;;;;4956420;29;20274;-70
2022/05/03 05:40:31;;;;;;;4.00;3.60;;;13.60;69.30;;;;;;4956737;29;20577;-70
2022/05/03 05:43:00;;;;;;;4.27;3.37;;;13.60;69.10;;;;;;4956439;28;20251;-70
2022/05/03 05:45:28;;;;;;;4.80;3.43;;;13.70;68.70;;;;;;4959875;29;20280;-68
2022/05/03 05:47:55;;;;;;;4.60;2.93;;;13.80;68.40;;;;;;4959986;29;20212;-70
2022/05/03 05:50:22;;;;;;;3.80;3.27;;;13.90;68.00;;;;;;4959780;29;20205;-69
2022/05/03 05:55:36;;;;;;;3.13;2.83;;;14.00;66.90;;;;;;4963582;28;20303;-69
2022/05/03 05:58:03;;;;;;;3.27;2.97;;;14.00;66.40;;;;;;4960291;29;20209;-69
2022/05/03 06:00:30;;;;;;;4.60;3.07;;;14.00;66.20;;;;;;4960671;29;20662;-70
2022/05/03 06:02:58;;;;;;;5.70;3.00;;;14.00;66.10;;;;;;4960341;29;20202;-69
2022/05/03 06:05:25;;;;;;;4.50;3.00;;;14.10;66.10;;;;;;4972525;28;20211;-69
2022/05/03 06:07:53;;;;;;;4.80;3.13;;;14.20;66.10;;;;;;4979367;28;20207;-69
2022/05/03 06:10:20;;;;;;;4.07;3.20;;;14.10;65.90;;;;;;4979316;28;20689;-69
2022/05/03 06:12:47;;;;;;;3.83;2.57;;;14.20;65.70;;;;;;4979150;28;20205;-70
2022/05/03 06:15:14;;;;;;;4.53;2.77;;;14.20;66.00;;;;;;4979208;28;20221;-69
2022/05/03 06:17:41;;;;;;;5.43;3.27;;;14.20;65.20;;;;;;4979440;28;20213;-70
2022/05/03 06:20:09;;;;;;;4.60;2.80;;;14.20;65.50;;;;;;4979475;28;20205;-70
2022/05/03 06:22:36;;;;;;;6.37;3.17;;;14.30;65.60;;;;;;4979395;28;20724;-71
2022/05/03 06:25:05;;;;;;;3.30;2.43;;;14.40;65.40;;;;;;4979129;28;20682;-69
2022/05/03 06:27:32;;;;;;;2.97;2.43;;;14.40;65.40;;;;;;4978730;28;20295;-69
2022/05/03 06:29:59;;;;;;;3.40;2.53;;;14.50;65.10;;;;;;4978915;28;20235;-69
2022/05/03 06:32:26;;;;;;;4.20;2.90;;;14.50;64.90;;;;;;4978486;28;20623;-69
2022/05/03 06:34:53;;;;;;;3.20;2.50;;;14.60;65.80;;;;;;4978157;28;20231;-70
2022/05/03 06:37:20;;;;;;;4.20;2.87;;;14.70;64.80;;;;;;4978117;28;20633;-69
2022/05/03 06:39:47;;;;;;;2.40;2.20;;;14.70;64.70;;;;;;4977993;28;20212;-69
2022/05/03 06:42:16;;;;;;;3.47;2.50;;;14.80;64.60;;;;;;4978420;28;20626;-69
2022/05/03 06:44:43;;;;;;;3.13;2.50;;;14.80;64.40;;;;;;4978638;28;20556;-69
2022/05/03 06:47:10;;;;;;;3.67;2.20;;;14.90;64.10;;;;;;4978536;28;20204;-68
2022/05/03 06:49:37;;;;;;;2.60;2.40;;;15.00;64.00;;;;;;4978222;28;20567;-70
2022/05/03 06:52:05;;;;;;;3.53;2.60;;;15.00;64.10;;;;;;4978570;28;20259;-70
2022/05/03 06:54:33;;;;;;;2.83;2.47;;;15.10;63.90;;;;;;4978143;28;20264;-70
2022/05/03 06:57:00;;;;;;;4.03;2.67;;;15.40;63.80;;;;;;4978455;28;20284;-69
2022/05/03 06:59:29;;;;;;;3.13;2.70;;;15.40;63.00;;;;;;4978522;28;20662;-69
2022/05/03 07:01:55;;;;;;;3.00;2.70;;;15.40;62.50;;;;;;4978663;28;20255;-69
2022/05/03 07:04:22;;;;;;;5.70;2.43;;;15.50;62.10;;;;;;4970907;28;20198;-70
2022/05/03 07:06:49;;;;;;;3.03;2.40;;;15.60;62.20;;;;;;4959024;28;20205;-69
2022/05/03 07:09:16;;;;;;;3.20;2.80;;;15.70;62.00;;;;;;4961776;29;20244;-68
2022/05/03 07:11:43;;;;;;;4.60;2.20;;;15.80;61.80;;;;;;4970356;29;20645;-69
2022/05/03 07:14:10;;;;;;;3.40;2.70;;;15.80;61.40;;;;;;4959440;29;20225;-70
2022/05/03 07:16:38;;;;;;;6.33;3.93;;;15.90;60.90;;;;;;4958249;29;20211;-69
2022/05/03 07:24:34;;;;;;;3.97;2.75;;;16.00;60.80;;;;;;4957921;29;20181;-69
2022/05/03 07:27:01;;;;;;;2.57;2.33;;;16.10;60.30;;;;;;4957855;29;20241;-68
2022/05/03 07:29:28;;;;;;;3.00;2.50;;;16.20;60.10;;;;;;4958698;29;20659;-70
2022/05/03 07:31:56;;;;;;;2.53;2.13;;;16.20;60.00;;;;;;4959051;29;20205;-69
2022/05/03 07:34:23;;;;;;;4.80;2.50;;;16.30;59.80;;;;;;4964865;28;20216;-68
2022/05/03 07:36:50;;;;;;;3.83;2.40;;;16.40;59.80;;;;;;4978625;28;20263;-69
2022/05/03 07:39:17;;;;;;;4.03;2.50;;;16.50;59.60;;;;;;4978243;28;20678;-69
2022/05/03 07:41:43;;;;;;;5.70;2.60;;;16.60;59.60;;;;;;4977999;28;20282;-69
2022/05/03 07:44:10;;;;;;;2.30;2.10;;;16.70;59.50;;;;;;4977970;28;20235;-70
2022/05/03 07:46:37;;;;;;;2.87;1.73;;;16.80;59.20;;;;;;4977201;28;20730;-69
2022/05/03 07:49:05;;;;;;;5.00;2.40;;;16.90;58.80;;;;;;4977280;28;20745;-69
2022/05/03 07:51:33;;;;;;;3.27;2.03;;;17.00;58.30;;;;;;4977713;28;20207;-69
2022/05/03 07:54:00;;;;;;;4.25;2.10;;;17.20;58.10;;;;;;4976860;28;20259;-69
2022/05/03 07:56:28;;;;;;;3.53;1.85;;;17.20;58.20;;;;;;4975703;28;20205;-69
2022/05/03 07:58:55;;;;;;;2.92;1.88;;;17.40;57.30;;;;;;4977348;28;20236;-69
2022/05/03 08:01:22;;;;;;;2.38;1.88;;;17.60;57.30;;;;;;4977149;28;20212;-69
2022/05/03 08:03:49;;;;;;;3.78;2.33;;;17.70;57.00;;;;;;4976858;28;20295;-69
2022/05/03 08:06:17;;;;;;;2.60;2.10;;;17.90;57.20;;;;;;4975604;28;20300;-70
2022/05/03 08:08:44;;;;;;;3.17;2.10;;;18.00;56.00;;;;;;4976355;28;20213;-68
2022/05/03 08:11:11;;;;;;;3.78;2.85;;;18.10;56.20;;;;;;4977231;28;20666;-69
2022/05/03 08:13:38;;;;;;;5.00;2.85;;;18.00;55.30;;;;;;4977680;28;20204;-69
2022/05/03 08:16:16;;;;;;;5.03;2.58;;;18.00;54.90;;;;;;4976735;28;20255;-69
2022/05/03 08:18:43;;;;;;;2.67;2.33;;;18.00;55.10;;;;;;4976897;28;20208;-70
2022/05/03 08:21:11;;;;;;;3.28;2.42;;;18.00;55.20;;;;;;4977067;28;20221;-69
2022/05/03 08:23:39;;;;;;;8.18;3.88;;;18.10;55.30;;;;;;4976260;28;20267;-69
2022/05/03 08:26:06;;;;;;;3.35;2.58;;;18.20;55.00;;;;;;4976537;28;20204;-69
2022/05/03 08:28:33;;;;;;;3.85;2.28;;;18.30;54.80;;;;;;4974629;28;20251;-71
2022/05/03 08:31:02;;;;;;;3.13;2.28;;;18.30;54.50;;;;;;4970662;28;20215;-70
2022/05/03 08:33:29;;;;;;;3.80;2.20;;;18.40;54.70;;;;;;4957161;29;20206;-71
2022/05/03 08:35:56;;;;;;;3.08;2.47;;;18.50;54.50;;;;;;4957016;29;20229;-70
2022/05/03 08:43:54;;;;;;;3.28;2.85;;;18.70;53.90;;;;;;4957213;29;20188;-70
2022/05/03 08:46:21;;;;;;;5.63;3.05;;;18.80;54.10;;;;;;4957033;29;20213;-70
2022/05/03 08:48:53;;;;;;;5.60;2.60;;;18.80;52.90;;;;;;4957278;29;20245;-70
2022/05/03 08:51:22;;;;;;;3.00;2.55;;;18.80;53.10;;;;;;4957592;29;20576;-69
2022/05/03 08:53:49;;;;;;;3.22;2.25;;;19.00;52.90;;;;;;4957107;29;20739;-70
2022/05/03 08:56:20;;;;;;;5.38;2.25;;;19.00;52.90;;;;;;4959368;28;20239;-70
2022/05/03 08:58:47;;;;;;;2.92;2.30;;;19.10;52.90;;;;;;4974795;28;20197;-70
2022/05/03 09:01:15;;;;;;;4.53;2.85;;;19.30;52.90;;;;;;4976429;28;20278;-70
2022/05/03 09:03:42;;;;;;;4.88;2.97;;;19.50;52.40;;;;;;4975310;28;20230;-70
2022/05/03 09:06:09;;;;;;;4.25;2.90;;;19.50;52.00;;;;;;4975835;28;20203;-69
2022/05/03 09:08:37;;;;;;;4.18;2.55;;;19.60;51.90;;;;;;4975917;28;20243;-69
2022/05/03 09:11:14;;;;;;;5.40;2.85;;;19.60;51.80;;;;;;4975947;28;20240;-70
2022/05/03 09:13:44;;;;;;;6.07;2.88;;;19.60;51.50;;;;;;4975752;28;20328;-70
2022/05/03 09:16:12;;;;;;;3.47;2.63;;;19.70;51.60;;;;;;4975394;28;20311;-70
2022/05/03 09:18:41;;;;;;;3.35;2.38;;;19.90;51.30;;;;;;4976093;28;20210;-71
2022/05/03 09:24:07;;;;;;;4.78;2.90;;;20.20;50.70;;;;;;4975621;28;20188;-70
2022/05/03 09:26:34;;;;;;;6.28;3.20;;;20.30;50.30;;;;;;4971244;28;20216;-71
2022/05/03 09:29:05;;;;;;;3.45;2.05;;;20.40;50.10;;;;;;4956281;29;20216;-71
2022/05/03 09:31:34;;;;;;;2.75;2.25;;;20.50;49.70;;;;;;4956540;29;20219;-70
2022/05/03 09:34:02;;;;;;;3.03;2.25;;;20.60;49.80;;;;;;4956579;29;20231;-71
2022/05/03 09:36:41;;;;;;;3.20;2.13;;;20.90;50.00;;;;;;4956547;29;20248;-71
2022/05/03 09:39:08;;;;;;;4.88;2.35;;;21.00;49.20;;;;;;4956685;29;20574;-71
2022/05/03 09:41:35;;;;;;;5.10;2.00;;;21.10;49.10;;;;;;4956750;29;20268;-70
2022/05/03 09:44:15;;;;;;;3.40;2.10;;;21.10;49.10;;;;;;4956502;29;20284;-71
2022/05/03 09:46:53;;;;;;;3.67;2.00;;;21.30;48.60;;;;;;4956968;29;20236;-70
2022/05/03 09:49:33;;;;;;;4.85;1.92;;;21.60;49.30;;;;;;4956028;29;20291;-70
2022/05/03 09:52:00;;;;;;;3.80;2.08;;;21.90;48.20;;;;;;4956678;29;20276;-70
2022/05/03 09:54:28;;;;;;;2.72;1.80;;;22.20;47.70;;;;;;4955810;29;20583;-70
2022/05/03 09:56:55;;;;;;;2.30;2.00;;;22.20;47.70;;;;;;4962336;28;20565;-70
2022/05/03 09:59:25;;;;;;;4.47;2.00;;;22.20;47.20;;;;;;4975476;28;20228;-70
2022/05/03 10:01:52;;;;;;;2.25;1.92;;;22.20;46.90;;;;;;4975356;28;20208;-69
2022/05/03 10:04:19;;;;;;;7.50;2.10;;;22.30;46.50;;;;;;4975669;28;20205;-69
2022/05/03 10:06:46;;;;;;;2.08;1.80;;;22.50;46.40;;;;;;4975622;28;20272;-71
2022/05/03 10:09:14;;;;;;;2.25;1.70;;;22.80;46.00;;;;;;4974841;28;20209;-70
2022/05/03 10:11:45;;;;;;;2.92;2.22;;;23.00;46.10;;;;;;4974649;28;20612;-69
2022/05/03 10:14:12;;;;;;;2.65;1.80;;;23.30;45.60;;;;;;4971287;28;20206;-69
2022/05/03 10:22:12;;;;;;;3.33;1.75;;;23.10;45.00;;;;;;4955209;28;20584;-69
2022/05/03 10:24:55;;;;;;;4.40;2.08;;;22.90;45.00;;;;;;4974740;28;20211;-69
2022/05/03 10:27:28;;;;;;;2.58;1.80;;;22.50;45.00;;;;;;4974479;28;20303;-71
2022/05/03 10:30:16;;;;;;;4.88;1.63;;;22.20;45.50;;;;;;4974796;28;20228;-69
2022/05/03 10:32:44;;;;;;;2.78;1.88;;;22.10;45.70;;;;;;4978717;28;20208;-70
2022/05/03 10:35:33;;;;;;;3.90;1.83;;;22.20;46.00;;;;;;4977702;28;20315;-70
2022/05/03 10:38:07;;;;;;;3.45;1.90;;;22.30;46.10;;;;;;4977944;28;20259;-69
2022/05/03 10:40:40;;;;;;;2.97;1.85;;;22.40;46.00;;;;;;4978366;28;20196;-71
2022/05/03 10:43:10;;;;;;;5.03;2.20;;;22.50;46.30;;;;;;4977690;28;20268;-69
2022/05/03 10:45:51;;;;;;;4.45;2.10;;;22.40;45.60;;;;;;4977830;28;20211;-70
2022/05/03 10:48:30;;;;;;;2.13;1.77;;;22.30;45.60;;;;;;4977350;28;20244;-68
2022/05/03 10:51:00;;;;;;;2.28;1.85;;;22.00;45.80;;;;;;4978051;28;20210;-69
2022/05/03 10:53:32;;;;;;;4.20;2.50;;;21.80;46.00;;;;;;4967359;28;20206;-69
2022/05/03 10:56:20;;;;;;;5.63;2.33;;;21.70;46.10;;;;;;4958349;29;20221;-70
2022/05/03 10:59:13;;;;;;;3.65;2.10;;;21.60;46.60;;;;;;4973271;28;20582;-69
2022/05/03 11:02:09;;;;;;;3.08;1.83;;;21.60;47.00;;;;;;4977900;28;20201;-69
2022/05/03 11:05:14;;;;;;;3.22;1.90;;;21.70;46.90;;;;;;4933530;28;20205;-70
2022/05/03 11:07:41;;;;;;;2.75;1.35;;;21.90;46.80;;;;;;4978980;28;20205;-70
2022/05/03 11:10:39;;;;;;;2.50;1.95;;;21.80;46.40;;;;;;4978313;28;20256;-69
2022/05/03 11:13:27;;;;;;;3.20;1.80;;;21.80;46.20;;;;;;4978327;28;20283;-71
2022/05/03 11:16:20;;;;;;;2.67;1.58;;;21.70;46.70;;;;;;4978321;28;20244;-70
2022/05/03 11:18:46;;;;;;;2.30;1.92;;;21.90;46.90;;;;;;4977675;28;20232;-68
2022/05/03 11:21:18;;;;;;;5.05;2.28;;;22.20;46.30;;;;;;4977908;28;20260;-70
2022/05/03 11:23:50;;;;;;;2.30;1.98;;;22.40;46.60;;;;;;4978031;28;20209;-69
2022/05/03 11:26:18;;;;;;;2.53;1.58;;;22.60;46.30;;;;;;4977762;28;20209;-71
2022/05/03 11:28:47;;;;;;;4.45;2.20;;;22.70;45.70;;;;;;4972575;28;20299;-70
2022/05/03 11:31:17;;;;;;;2.20;1.98;;;22.80;45.20;;;;;;4978160;28;20245;-70
2022/05/03 11:33:52;;;;;;;2.42;2.22;;;22.90;45.00;;;;;;4978190;28;20213;-70
2022/05/03 11:36:21;;;;;;;3.78;2.20;;;22.90;44.70;;;;;;4977986;28;20259;-71
2022/05/03 11:38:49;;;;;;;2.55;2.35;;;22.90;44.90;;;;;;4974357;28;20216;-68
2022/05/03 11:41:16;;;;;;;3.22;2.05;;;22.90;45.00;;;;;;4972487;28;20272;-70
2022/05/03 11:43:43;;;;;;;4.95;2.25;;;23.10;45.20;;;;;;4965804;28;20245;-69
2022/05/03 11:46:10;;;;;;;2.97;2.67;;;23.10;44.80;;;;;;4956575;28;20205;-69
2022/05/03 11:48:38;;;;;;;3.63;2.40;;;23.10;44.70;;;;;;4957025;28;20299;-69
2022/05/03 11:56:36;;;;;;;2.70;2.50;;;23.20;45.10;;;;;;4957392;29;20713;-70
2022/05/03 11:59:05;;;;;;;3.88;2.40;;;23.10;44.90;;;;;;4956145;28;20241;-68
2022/05/03 12:01:34;;;;;;;2.22;2.05;;;22.90;44.70;;;;;;4969071;28;20212;-69
2022/05/03 12:04:02;;;;;;;4.03;2.25;;;22.70;45.10;;;;;;4976824;28;20220;-69
2022/05/03 12:06:43;;;;;;;3.78;2.25;;;22.50;45.30;;;;;;4971814;28;20205;-68
2022/05/03 12:09:12;;;;;;;2.42;2.22;;;22.40;45.60;;;;;;4960715;28;20213;-71
2022/05/03 12:12:42;;;;;;;6.47;2.58;;;22.30;45.40;;;;;;4968021;28;20316;-70
2022/05/03 12:14:36;;;;;;;2.55;2.35;;;22.20;45.50;;;;;;4961854;28;20220;-69
2022/05/03 12:17:03;;;;;;;3.53;2.80;;;22.10;45.70;;;;;;4971088;28;20224;-71
2022/05/03 12:19:35;;;;;;;2.90;2.45;;;21.90;45.90;;;;;;4966898;28;20209;-70
2022/05/03 12:22:10;;;;;;;1.83;1.73;;;21.90;46.10;;;;;;4960937;28;20332;-69
2022/05/03 12:24:41;;;;;;;2.30;2.10;;;21.70;46.10;;;;;;4967671;28;20292;-70
2022/05/03 12:27:13;;;;;;;3.55;1.70;;;21.50;46.00;;;;;;4958522;28;20239;-72
2022/05/03 12:29:44;;;;;;;3.30;2.05;;;21.40;45.90;;;;;;4974094;28;20271;-68
2022/05/03 12:32:15;;;;;;;2.92;1.77;;;21.40;45.80;;;;;;4974450;28;20610;-69
2022/05/03 12:34:42;;;;;;;2.28;1.80;;;21.40;45.70;;;;;;4962564;28;20209;-69
2022/05/03 12:37:09;;;;;;;2.72;1.65;;;21.50;45.80;;;;;;4964698;28;20252;-68
2022/05/03 12:39:37;;;;;;;2.33;2.03;;;21.80;45.70;;;;;;4961752;28;20275;-69
2022/05/03 12:42:11;;;;;;;4.82;1.42;;;22.10;45.20;;;;;;4957318;28;20699;-68
2022/05/03 12:44:49;;;;;;;2.13;1.58;;;22.40;45.20;;;;;;4955596;28;20208;-69
2022/05/03 12:47:16;;;;;;;1.88;1.60;;;22.60;45.00;;;;;;4958049;28;20753;-69
2022/05/03 12:49:43;;;;;;;3.20;1.30;;;22.60;44.70;;;;;;4966836;28;20570;-69
2022/05/03 12:52:11;;;;;;;3.40;1.77;;;22.50;44.20;;;;;;4972179;28;20272;-68
2022/05/03 12:54:41;;;;;;;3.17;1.60;;;22.40;44.00;;;;;;4968000;28;20213;-68
2022/05/03 12:59:55;;;;;;;3.42;1.48;;;22.00;44.50;;;;;;4956430;28;20682;-70
2022/05/03 13:02:23;;;;;;;3.88;2.90;;;21.90;44.80;;;;;;4959894;28;20240;-69
2022/05/03 13:04:50;;;;;;;3.08;2.63;;;21.90;45.00;;;;;;4968392;28;20244;-70
2022/05/03 13:07:17;;;;;;;1.83;1.50;;;21.80;45.10;;;;;;4964474;28;20645;-69
2022/05/03 13:09:45;;;;;;;2.30;1.30;;;21.60;45.30;;;;;;4967464;28;20271;-70
2022/05/03 13:12:13;;;;;;;3.95;1.30;;;21.60;45.70;;;;;;4972574;28;20207;-69
2022/05/03 13:14:41;;;;;;;3.08;1.40;;;21.60;45.20;;;;;;4961566;28;20212;-68
2022/05/03 13:17:07;;;;;;;3.25;1.30;;;21.80;45.20;;;;;;4956608;28;20229;-69
2022/05/03 13:19:34;;;;;;;7.70;1.25;;;21.90;44.70;;;;;;4967881;28;20219;-70
2022/05/03 13:22:02;;;;;;;3.28;1.10;;;21.90;43.90;;;;;;4965914;28;20236;-70
2022/05/03 13:24:29;;;;;;;2.13;1.20;;;21.90;43.40;;;;;;4961779;28;20219;-67
2022/05/03 13:26:57;;;;;;;2.90;1.15;;;22.00;43.10;;;;;;4958403;28;20217;-68
2022/05/03 13:29:25;;;;;;;3.10;1.23;;;21.90;42.80;;;;;;4955703;28;20212;-70
2022/05/03 13:31:53;;;;;;;2.10;1.33;;;21.90;42.50;;;;;;4954926;28;20276;-68